Time;durP1;ratioP1;P1;durP2;ratioP2;P2;SDS_P1;SDS_P2;PMS_P1;PMS_P2;Temp;Humidity;BMP_temperature;BMP_pressure;BME280_temperature;BME280_humidity;BME280_pressure;Samples;Min_cycle;Max_cycle;Signal;HPM_P1;HPM_P2
2022/06/16 00:02:04;;;;;;;6.85;2.92;;;;;;;19.84;53.08;101429.00;5053857;28;20061;-72
2022/06/16 00:04:32;;;;;;;10.18;3.55;;;;;;;19.74;53.33;101413.25;5053136;28;20049;-73
2022/06/16 00:06:59;;;;;;;7.47;3.20;;;;;;;19.73;52.71;101409.66;5055057;28;20055;-72
2022/06/16 00:09:26;;;;;;;8.13;3.22;;;;;;;19.71;52.66;101408.53;5059547;28;20048;-73
2022/06/16 00:11:54;;;;;;;12.02;3.38;;;;;;;19.66;52.96;101418.28;5055755;28;20168;-71
2022/06/16 00:14:23;;;;;;;9.02;3.53;;;;;;;19.69;52.40;101425.81;5055828;28;20045;-73
2022/06/16 00:16:49;;;;;;;11.93;3.88;;;;;;;19.58;53.21;101421.72;5050509;28;20281;-72
2022/06/16 00:19:16;;;;;;;9.55;3.63;;;;;;;19.55;52.50;101417.00;5059090;28;20044;-72
2022/06/16 00:21:42;;;;;;;10.57;3.53;;;;;;;19.55;52.75;101422.59;5054250;28;20072;-72
2022/06/16 00:24:09;;;;;;;11.10;3.45;;;;;;;19.51;52.57;101422.69;5060439;28;20139;-73
2022/06/16 00:26:36;;;;;;;9.40;3.47;;;;;;;19.49;53.35;101424.34;5049930;28;20143;-72
2022/06/16 00:29:03;;;;;;;8.13;3.60;;;;;;;19.52;52.58;101423.47;5052250;28;20052;-73
2022/06/16 00:31:36;;;;;;;10.77;3.92;;;;;;;19.53;52.16;101422.25;5060155;28;20106;-73
2022/06/16 00:34:03;;;;;;;8.43;3.20;;;;;;;19.47;52.64;101415.63;5061671;28;20052;-72
2022/06/16 00:36:29;;;;;;;9.55;3.53;;;;;;;19.44;52.76;101411.66;5052322;28;20052;-72
2022/06/16 00:38:56;;;;;;;10.13;3.78;;;;;;;19.38;52.93;101424.66;5057003;28;20567;-73
2022/06/16 00:41:22;;;;;;;13.25;3.35;;;;;;;19.38;52.84;101419.03;5061860;28;20131;-73
2022/06/16 00:43:49;;;;;;;10.15;3.47;;;;;;;19.35;53.15;101419.91;5047053;28;20045;-73
2022/06/16 00:46:20;;;;;;;9.73;3.45;;;;;;;19.33;53.48;101416.75;5046771;28;20674;-72
2022/06/16 00:48:55;;;;;;;10.73;3.30;;;;;;;19.33;52.86;101427.19;5051662;28;20128;-74
2022/06/16 00:51:33;;;;;;;9.48;3.88;;;;;;;19.24;53.71;101424.97;5046763;28;20663;-72
2022/06/16 00:54:24;;;;;;;9.25;3.70;;;;;;;19.17;54.43;101424.38;5055642;28;20787;-73
2022/06/16 00:56:54;;;;;;;10.50;3.78;;;;;;;19.17;53.04;101430.00;5055836;28;20056;-73
2022/06/16 00:59:22;;;;;;;10.50;3.20;;;;;;;19.12;52.95;101419.28;5059425;28;20048;-74
2022/06/16 01:01:50;;;;;;;8.18;3.33;;;;;;;19.09;52.78;101400.53;5058157;28;20045;-74
2022/06/16 01:07:08;;;;;;;7.72;3.35;;;;;;;18.99;53.30;101395.97;5048931;28;20123;-72
2022/06/16 01:09:36;;;;;;;11.35;4.25;;;;;;;18.90;53.92;101393.00;5057940;28;20131;-72
2022/06/16 01:15:15;;;;;;;7.55;3.28;;;;;;;18.84;54.38;101414.38;5057052;28;20139;-72
2022/06/16 01:17:58;;;;;;;9.45;3.53;;;;;;;18.82;54.40;101419.63;5059134;28;20052;-73
2022/06/16 01:20:36;;;;;;;8.93;3.40;;;;;;;18.80;54.23;101411.63;5036533;28;20058;-73
2022/06/16 01:23:23;;;;;;;10.93;3.35;;;;;;;18.85;53.33;101411.13;5035995;28;20131;-75
2022/06/16 01:26:20;;;;;;;10.68;3.42;;;;;;;18.84;54.22;101417.97;5031629;28;20060;-74
2022/06/16 01:29:18;;;;;;;7.00;3.08;;;;;;;18.76;54.51;101399.72;5038732;28;20048;-74
2022/06/16 01:31:57;;;;;;;6.50;3.33;;;;;;;18.75;54.15;101409.38;5036698;28;20057;-74
2022/06/16 01:34:24;;;;;;;9.60;3.60;;;;;;;18.77;54.08;101411.75;5037309;28;20048;-75
2022/06/16 01:36:53;;;;;;;13.55;3.78;;;;;;;18.75;53.51;101412.19;5035040;28;20506;-75
2022/06/16 01:39:26;;;;;;;10.82;3.30;;;;;;;18.75;54.01;101416.97;5038772;28;20048;-75
2022/06/16 01:42:14;;;;;;;9.63;3.83;;;;;;;18.71;54.83;101419.09;5036049;28;20160;-75
2022/06/16 01:45:06;;;;;;;12.50;3.67;;;;;;;18.71;54.19;101424.69;5049782;28;20054;-73
2022/06/16 01:47:37;;;;;;;9.38;3.08;;;;;;;18.69;54.04;101429.97;5055035;28;20044;-73
2022/06/16 01:50:11;;;;;;;7.82;4.60;;;;;;;18.67;54.52;101440.81;5062428;28;20048;-73
2022/06/16 01:52:49;;;;;;;11.13;3.53;;;;;;;18.66;55.03;101451.22;5047020;28;20773;-74
2022/06/16 01:55:20;;;;;;;10.18;3.58;;;;;;;18.69;54.32;101446.78;5054531;28;20052;-72
2022/06/16 01:58:00;;;;;;;11.68;3.58;;;;;;;18.67;55.89;101449.22;5062509;28;20048;-72
2022/06/16 02:00:28;;;;;;;9.43;3.70;;;;;;;18.67;55.00;101450.00;5049766;28;20048;-74
2022/06/16 02:03:11;;;;;;;9.77;3.40;;;;;;;18.62;55.57;101447.72;5056580;28;20052;-73
2022/06/16 02:05:47;;;;;;;6.47;3.35;;;;;;;18.67;54.73;101450.00;5052651;28;20045;-74
2022/06/16 02:08:17;;;;;;;10.18;3.75;;;;;;;18.62;54.35;101450.50;5046444;28;20053;-73
2022/06/16 02:10:49;;;;;;;9.45;3.53;;;;;;;18.61;54.54;101451.75;5061482;28;20084;-73
2022/06/16 02:13:21;;;;;;;9.07;3.45;;;;;;;18.58;54.75;101449.81;5050936;28;20123;-73
2022/06/16 02:15:48;;;;;;;8.20;3.70;;;;;;;18.54;54.43;101446.31;5054684;28;20144;-72
2022/06/16 02:18:20;;;;;;;7.03;3.10;;;;;;;18.52;54.69;101439.56;5058964;28;20044;-74
2022/06/16 02:20:52;;;;;;;9.30;3.58;;;;;;;18.52;54.76;101443.13;5057835;28;20167;-72
2022/06/16 02:23:20;;;;;;;7.45;3.42;;;;;;;18.50;54.08;101439.19;5062709;28;20114;-74
2022/06/16 02:25:50;;;;;;;8.32;3.40;;;;;;;18.49;54.25;101435.59;5054623;28;20088;-74
2022/06/16 02:28:17;;;;;;;7.97;3.10;;;;;;;18.44;54.57;101438.13;5067761;28;20647;-72
2022/06/16 02:31:02;;;;;;;10.15;3.63;;;;;;;18.41;55.51;101439.78;5064087;28;20071;-72
2022/06/16 02:33:51;;;;;;;10.30;3.08;;;;;;;18.38;55.09;101440.66;5059423;28;20114;-72
2022/06/16 02:36:24;;;;;;;7.03;3.00;;;;;;;18.33;55.36;101435.53;5062284;28;20071;-75
2022/06/16 02:39:41;;;;;;;8.23;3.13;;;;;;;18.26;55.67;101440.50;5061005;28;20591;-72
2022/06/16 02:42:35;;;;;;;8.65;3.38;;;;;;;18.19;55.81;101441.41;5052389;28;20136;-72
2022/06/16 02:45:10;;;;;;;10.02;3.35;;;;;;;18.17;55.15;101424.25;5061831;28;20493;-72
2022/06/16 02:47:47;;;;;;;9.20;3.30;;;;;;;18.13;54.76;101429.16;5058161;28;20045;-72
2022/06/16 02:51:08;;;;;;;8.43;3.25;;;;;;;18.09;56.04;101441.66;5061724;28;20583;-72
2022/06/16 02:56:36;;;;;;;11.00;3.42;;;;;;;18.04;55.01;101442.94;5060986;28;20125;-73
2022/06/16 02:59:11;;;;;;;6.38;3.00;;;;;;;17.94;56.33;101443.94;5058804;28;20048;-72
2022/06/16 03:01:38;;;;;;;;;;;;;;;17.91;57.29;101450.38;5059126;28;20151;-72
2022/06/16 03:04:14;;;;;;;7.38;2.70;;;;;;;17.88;56.16;101449.25;5061143;28;19935;-72
2022/06/16 03:06:43;;;;;;;9.38;3.20;;;;;;;17.88;56.01;101440.03;5056729;28;20049;-72
2022/06/16 03:09:10;;;;;;;8.10;3.25;;;;;;;17.82;55.87;101447.38;5060564;28;20041;-72
2022/06/16 03:11:37;;;;;;;9.52;3.03;;;;;;;17.81;56.03;101448.59;5058881;28;20052;-73
2022/06/16 03:14:05;;;;;;;10.48;2.70;;;;;;;17.80;56.25;101453.41;5053661;28;20081;-73
2022/06/16 03:16:32;;;;;;;6.32;2.45;;;;;;;17.79;55.67;101457.41;5054386;28;20107;-73
2022/06/16 03:18:59;;;;;;;11.32;2.72;;;;;;;17.76;55.69;101469.47;5059746;28;20048;-72
2022/06/16 03:21:25;;;;;;;4.50;2.45;;;;;;;17.72;55.01;101465.19;5060172;28;20052;-72
2022/06/16 03:23:52;;;;;;;9.15;2.75;;;;;;;17.74;54.82;101482.31;5054092;28;20045;-72
2022/06/16 03:26:18;;;;;;;7.45;3.15;;;;;;;17.71;54.72;101477.56;5061128;28;20059;-73
2022/06/16 03:28:45;;;;;;;7.50;2.97;;;;;;;17.71;54.84;101474.75;5060567;28;20058;-73
2022/06/16 03:31:11;;;;;;;9.25;3.22;;;;;;;17.69;55.04;101478.00;5056070;28;20600;-72
2022/06/16 03:33:38;;;;;;;9.23;2.90;;;;;;;17.67;54.78;101479.66;5058445;28;20120;-72
2022/06/16 03:36:05;;;;;;;10.02;3.42;;;;;;;17.64;54.85;101486.88;5061651;28;20140;-75
2022/06/16 03:41:07;;;;;;;6.57;2.95;;;;;;;17.60;55.33;101485.38;5050744;28;20052;-74
2022/06/16 03:43:34;;;;;;;9.23;3.08;;;;;;;17.57;55.11;101491.81;5053371;28;20123;-74
2022/06/16 03:46:00;;;;;;;7.75;3.08;;;;;;;17.53;54.96;101502.28;5061117;28;20772;-74
2022/06/16 03:48:27;;;;;;;7.60;3.00;;;;;;;17.52;55.43;101509.88;5063172;28;20049;-74
2022/06/16 03:50:53;;;;;;;6.35;2.90;;;;;;;17.52;55.54;101515.47;5054645;28;20048;-72
2022/06/16 03:53:20;;;;;;;7.20;2.78;;;;;;;17.51;55.52;101524.28;5062328;28;20116;-73
2022/06/16 03:55:47;;;;;;;10.25;2.83;;;;;;;17.52;54.68;101526.66;5057383;28;20068;-73
2022/06/16 03:58:14;;;;;;;10.35;2.95;;;;;;;17.48;55.86;101522.34;5061299;28;20060;-73
2022/06/16 04:00:41;;;;;;;8.82;2.92;;;;;;;17.44;55.69;101521.63;5060626;28;20071;-73
2022/06/16 04:05:54;;;;;;;;;;;;;;;17.42;56.67;101524.84;5053050;28;20064;-74
2022/06/16 04:08:21;;;;;;;8.43;2.38;;;;;;;17.41;55.84;101531.63;5048771;28;20623;-73
2022/06/16 04:10:48;;;;;;;5.63;2.58;;;;;;;17.34;56.36;101536.53;5052873;28;20135;-74
2022/06/16 04:13:15;;;;;;;5.85;2.85;;;;;;;17.34;56.36;101539.31;5064036;28;20505;-73
2022/06/16 04:15:50;;;;;;;7.93;2.67;;;;;;;17.34;56.16;101536.53;5058795;28;20052;-72
2022/06/16 04:18:20;;;;;;;8.23;2.60;;;;;;;17.31;56.46;101531.78;5051431;28;20298;-73
2022/06/16 04:20:47;;;;;;;3.95;2.58;;;;;;;17.29;56.10;101509.06;5046147;28;20096;-73
2022/06/16 04:23:17;;;;;;;7.22;2.60;;;;;;;17.21;56.10;101510.38;5062422;28;20090;-73
2022/06/16 04:25:44;;;;;;;4.90;2.67;;;;;;;17.20;56.11;101517.97;5053217;28;20073;-73
2022/06/16 04:28:10;;;;;;;7.20;2.80;;;;;;;17.19;56.90;101516.41;5054363;28;20677;-73
2022/06/16 04:30:37;;;;;;;6.38;2.58;;;;;;;17.21;57.20;101524.38;5058565;28;20436;-75
2022/06/16 04:33:04;;;;;;;7.68;2.63;;;;;;;17.23;57.87;101528.31;5061683;28;20048;-73
2022/06/16 04:35:30;;;;;;;6.45;2.47;;;;;;;17.27;57.63;101525.47;5062205;28;20143;-75
2022/06/16 04:37:57;;;;;;;10.88;3.05;;;;;;;17.27;57.22;101531.03;5057682;28;20508;-73
2022/06/16 04:40:23;;;;;;;7.95;2.72;;;;;;;17.28;58.22;101530.63;5054037;28;20107;-73
2022/06/16 04:42:50;;;;;;;8.18;2.92;;;;;;;17.29;57.85;101534.22;5055474;28;20527;-74
2022/06/16 04:45:17;;;;;;;7.00;2.90;;;;;;;17.27;58.34;101536.66;5056752;28;20051;-75
2022/06/16 04:47:43;;;;;;;9.90;2.70;;;;;;;17.30;58.46;101545.00;5054683;28;20083;-73
2022/06/16 04:50:14;;;;;;;5.18;2.65;;;;;;;17.34;58.23;101544.94;5054674;28;20048;-73
2022/06/16 04:52:40;;;;;;;9.32;3.00;;;;;;;17.40;58.40;101546.03;5048237;28;20057;-74
2022/06/16 04:55:08;;;;;;;7.97;2.58;;;;;;;17.40;59.14;101546.84;5060263;28;20095;-73
2022/06/16 04:57:34;;;;;;;8.80;2.72;;;;;;;17.41;58.73;101554.00;5061913;28;20049;-72
2022/06/16 05:00:03;;;;;;;12.88;3.33;;;;;;;17.44;58.87;101553.19;5061879;28;20044;-76
2022/06/16 05:02:49;;;;;;;6.28;2.42;;;;;;;17.48;58.86;101559.50;5061405;28;20076;-74
2022/06/16 05:05:16;;;;;;;8.50;2.80;;;;;;;17.55;58.72;101564.22;5054607;28;20093;-73
2022/06/16 05:07:43;;;;;;;6.95;2.50;;;;;;;17.57;58.80;101567.38;5051469;28;20130;-72
2022/06/16 05:10:11;;;;;;;6.95;2.65;;;;;;;17.60;58.87;101581.31;5060174;28;20056;-73
2022/06/16 05:12:38;;;;;;;11.20;3.28;;;;;;;17.59;59.08;101570.53;5055125;28;20053;-73
2022/06/16 05:15:06;;;;;;;6.70;3.03;;;;;;;17.62;58.84;101575.31;5052502;28;20055;-74
2022/06/16 05:17:32;;;;;;;13.30;2.90;;;;;;;17.67;58.99;101580.41;5049184;28;20051;-76
2022/06/16 05:19:59;;;;;;;10.90;2.92;;;;;;;17.69;59.84;101584.34;5054862;28;20063;-71
2022/06/16 05:22:26;;;;;;;7.90;2.63;;;;;;;17.75;59.46;101584.66;5062348;28;20045;-77
2022/06/16 05:24:52;;;;;;;9.27;2.72;;;;;;;17.76;59.75;101592.63;5055798;28;20416;-73
2022/06/16 05:27:19;;;;;;;7.75;3.00;;;;;;;17.77;60.23;101593.44;5055220;28;20099;-74
2022/06/16 05:29:46;;;;;;;7.68;2.78;;;;;;;17.81;60.72;101599.75;5058241;28;20086;-74
2022/06/16 05:32:12;;;;;;;7.47;3.00;;;;;;;17.84;60.91;101607.31;5051856;28;20155;-73
2022/06/16 05:34:39;;;;;;;12.48;3.58;;;;;;;17.82;61.48;101610.53;5054140;28;20486;-74
2022/06/16 05:37:06;;;;;;;7.30;2.70;;;;;;;17.89;60.79;101604.03;5055603;28;20044;-74
2022/06/16 05:39:33;;;;;;;7.93;3.05;;;;;;;17.97;60.83;101605.47;5054433;28;20053;-74
2022/06/16 05:41:59;;;;;;;8.35;2.88;;;;;;;17.99;61.11;101605.88;5049968;28;20057;-74
2022/06/16 05:44:26;;;;;;;8.70;3.22;;;;;;;18.03;61.06;101610.16;5062595;28;20110;-73
2022/06/16 05:46:53;;;;;;;5.95;3.05;;;;;;;18.02;61.58;101600.19;5056852;28;20095;-75
2022/06/16 05:49:21;;;;;;;7.88;3.05;;;;;;;18.05;61.19;101609.72;5057894;28;20047;-75
2022/06/16 05:51:48;;;;;;;7.03;2.92;;;;;;;18.09;61.62;101615.28;5057133;28;20048;-74
2022/06/16 05:54:14;;;;;;;8.32;2.92;;;;;;;18.13;61.69;101614.00;5063383;28;20037;-76
2022/06/16 05:56:41;;;;;;;7.97;3.00;;;;;;;18.11;62.22;101616.44;5063953;28;20127;-75
2022/06/16 05:59:08;;;;;;;7.97;2.95;;;;;;;18.10;62.05;101608.47;5059003;28;20052;-75
2022/06/16 06:01:37;;;;;;;9.95;3.40;;;;;;;18.14;62.95;101621.19;5057632;28;20094;-75
2022/06/16 06:04:03;;;;;;;10.18;2.90;;;;;;;18.18;62.51;101621.09;5059540;28;20123;-75
2022/06/16 06:06:30;;;;;;;9.77;3.20;;;;;;;18.27;62.50;101629.75;5059942;28;20659;-75
2022/06/16 06:17:20;;;;;;;7.85;2.90;;;;;;;18.60;62.98;101625.97;5053871;28;20059;-75
2022/06/16 06:19:46;;;;;;;11.13;3.40;;;;;;;18.64;63.16;101627.47;5049259;28;20111;-74
2022/06/16 06:22:23;;;;;;;7.85;2.72;;;;;;;18.63;63.22;101628.69;5066851;28;20049;-73
2022/06/16 06:24:54;;;;;;;7.00;2.40;;;;;;;18.68;62.64;101645.00;5060693;28;20063;-75
2022/06/16 06:27:29;;;;;;;4.95;2.53;;;;;;;18.79;63.38;101647.59;5053108;28;20135;-74
2022/06/16 06:30:08;;;;;;;7.13;2.95;;;;;;;18.85;63.10;101648.66;5067469;28;20044;-75
2022/06/16 06:32:35;;;;;;;6.88;2.60;;;;;;;18.89;61.81;101655.78;5052906;28;20053;-75
2022/06/16 06:35:03;;;;;;;8.48;2.50;;;;;;;18.94;61.68;101652.50;5061431;28;20132;-75
2022/06/16 06:37:29;;;;;;;8.60;3.13;;;;;;;18.97;61.65;101662.06;5061381;28;20083;-74
2022/06/16 06:39:57;;;;;;;9.70;2.40;;;;;;;19.06;61.86;101653.84;5067195;28;20155;-74
2022/06/16 06:42:24;;;;;;;8.85;2.35;;;;;;;19.14;61.64;101666.50;5059451;28;20056;-74
2022/06/16 06:44:50;;;;;;;4.22;2.00;;;;;;;19.15;60.84;101660.47;5067470;28;20056;-75
2022/06/16 06:47:25;;;;;;;7.93;2.72;;;;;;;19.14;59.69;101670.09;5057383;28;20128;-74
2022/06/16 06:49:53;;;;;;;5.43;2.13;;;;;;;19.19;59.32;101672.41;5054866;28;20049;-74
2022/06/16 06:52:19;;;;;;;6.85;2.03;;;;;;;19.24;59.08;101673.91;5054809;28;20156;-74
2022/06/16 06:54:46;;;;;;;8.30;2.40;;;;;;;19.33;59.01;101677.72;5059196;28;20132;-73
2022/06/16 06:57:17;;;;;;;7.40;2.65;;;;;;;19.44;58.46;101667.06;5055908;28;20135;-72
2022/06/16 06:59:44;;;;;;;8.13;2.28;;;;;;;19.58;57.87;101669.53;5056698;28;20473;-73
2022/06/16 07:02:12;;;;;;;6.60;2.00;;;;;;;19.63;57.35;101662.63;5055257;28;20102;-73
2022/06/16 07:04:40;;;;;;;7.25;2.00;;;;;;;19.67;56.75;101666.91;5051548;28;20045;-72
2022/06/16 07:07:12;;;;;;;5.68;2.00;;;;;;;19.72;55.37;101666.41;5060689;28;20049;-74
2022/06/16 07:09:39;;;;;;;7.20;1.90;;;;;;;19.77;54.55;101660.25;5061212;28;20081;-72
2022/06/16 07:12:13;;;;;;;5.22;1.67;;;;;;;19.84;53.38;101665.72;5063196;28;20049;-72
2022/06/16 07:14:46;;;;;;;7.18;2.42;;;;;;;19.88;51.82;101672.03;5053194;28;20049;-72
2022/06/16 07:17:15;;;;;;;4.35;1.90;;;;;;;19.97;51.63;101672.22;5054995;28;20044;-73
2022/06/16 07:19:42;;;;;;;4.90;1.65;;;;;;;20.00;49.74;101670.53;5054789;28;20048;-74
2022/06/16 07:22:09;;;;;;;7.10;2.00;;;;;;;20.06;49.54;101677.22;5056009;28;20052;-72
2022/06/16 07:24:36;;;;;;;4.75;1.92;;;;;;;20.07;48.83;101667.56;5056567;28;20048;-71
2022/06/16 07:27:04;;;;;;;7.50;2.00;;;;;;;20.11;49.84;101674.69;5050040;28;20136;-73
2022/06/16 07:29:32;;;;;;;4.05;1.70;;;;;;;20.21;49.29;101679.25;5053770;28;20052;-73
2022/06/16 07:32:04;;;;;;;5.88;2.03;;;;;;;20.32;49.43;101687.44;5059122;28;20158;-72
2022/06/16 07:34:31;;;;;;;3.85;1.80;;;;;;;20.36;49.12;101686.09;5053363;28;20057;-73
2022/06/16 07:36:57;;;;;;;4.45;1.48;;;;;;;20.38;49.04;101679.25;5063308;28;20054;-74
2022/06/16 07:39:25;;;;;;;4.75;1.48;;;;;;;20.47;48.59;101690.63;5061142;28;20048;-75
2022/06/16 07:41:52;;;;;;;6.18;1.65;;;;;;;20.55;48.21;101684.38;5059900;28;20493;-73
2022/06/16 07:44:19;;;;;;;5.65;1.65;;;;;;;20.56;47.56;101688.00;5053443;28;20053;-74
2022/06/16 07:46:47;;;;;;;4.93;1.55;;;;;;;20.60;47.50;101688.69;5055180;28;20053;-72
2022/06/16 07:49:17;;;;;;;2.42;1.52;;;;;;;20.61;47.12;101693.88;5023765;28;1114181;-72
2022/06/16 07:51:43;;;;;;;4.82;1.35;;;;;;;20.67;46.98;101691.31;5059883;28;20478;-72
2022/06/16 07:54:12;;;;;;;5.32;1.40;;;;;;;20.72;47.34;101699.22;5065335;28;20049;-72
2022/06/16 07:56:58;;;;;;;4.32;1.33;;;;;;;20.80;46.93;101703.41;5057324;28;20048;-71
2022/06/16 07:59:25;;;;;;;6.85;1.30;;;;;;;20.80;46.47;101703.41;5059835;28;20196;-72
2022/06/16 08:01:53;;;;;;;5.72;1.63;;;;;;;20.90;46.90;101711.56;5061659;28;20475;-72
2022/06/16 08:04:20;;;;;;;6.65;1.48;;;;;;;20.92;45.90;101719.56;5061022;28;20121;-73
2022/06/16 08:06:47;;;;;;;3.17;1.23;;;;;;;20.96;45.10;101720.28;5057712;28;20075;-72
2022/06/16 08:09:14;;;;;;;3.92;1.50;;;;;;;21.02;45.30;101721.31;5056900;28;20485;-71
2022/06/16 08:14:25;;;;;;;6.65;2.03;;;;;;;21.07;44.47;101712.31;5059737;28;20059;-73
2022/06/16 08:16:53;;;;;;;3.75;1.33;;;;;;;21.20;44.34;101730.03;5059010;28;20139;-71
2022/06/16 08:19:20;;;;;;;4.20;1.40;;;;;;;21.29;44.47;101733.75;5058616;28;20114;-72
2022/06/16 08:21:46;;;;;;;3.28;1.15;;;;;;;21.44;43.94;101731.34;5056967;28;20153;-73
2022/06/16 08:24:13;;;;;;;3.60;1.27;;;;;;;21.47;43.50;101736.88;5066484;28;20052;-73
2022/06/16 08:26:41;;;;;;;3.60;1.40;;;;;;;21.49;43.09;101733.56;5064031;28;20044;-73
2022/06/16 08:29:11;;;;;;;2.95;1.00;;;;;;;21.59;42.07;101738.09;5063855;28;20143;-74
2022/06/16 08:31:41;;;;;;;5.00;1.27;;;;;;;21.61;41.44;101738.44;5062837;28;20143;-73
2022/06/16 08:34:08;;;;;;;4.35;1.27;;;;;;;21.67;41.90;101736.66;5050352;28;20497;-71
2022/06/16 08:36:35;;;;;;;3.72;1.30;;;;;;;21.76;41.65;101740.41;5063764;28;20036;-73
2022/06/16 08:39:04;;;;;;;2.85;1.15;;;;;;;21.77;41.83;101738.41;5059133;28;20545;-71
2022/06/16 08:41:40;;;;;;;4.00;1.02;;;;;;;21.90;41.52;101737.16;5052341;28;20048;-71
2022/06/16 08:44:42;;;;;;;1.92;1.10;;;;;;;22.04;40.97;101735.91;5056274;28;20048;-70
2022/06/16 08:47:16;;;;;;;6.00;1.48;;;;;;;22.18;41.32;101739.03;5027062;28;20520;-74
2022/06/16 08:49:58;;;;;;;8.02;1.80;;;;;;;22.32;40.82;101740.63;5049258;28;20131;-72
2022/06/16 08:52:30;;;;;;;6.35;1.45;;;;;;;22.54;40.98;101741.50;5057745;28;20048;-76
2022/06/16 08:55:16;;;;;;;3.92;1.30;;;;;;;22.65;40.15;101736.31;5057736;28;20139;-73
2022/06/16 08:58:12;;;;;;;4.65;1.33;;;;;;;22.75;40.02;101740.78;5059964;28;20056;-72
2022/06/16 09:00:46;;;;;;;3.45;1.08;;;;;;;22.86;39.58;101746.84;5051457;28;20497;-73
2022/06/16 09:03:29;;;;;;;1.98;1.05;;;;;;;22.99;39.02;101738.31;5055265;28;20056;-74
2022/06/16 09:06:13;;;;;;;2.53;1.02;;;;;;;23.05;38.81;101750.59;5057730;28;20044;-74
2022/06/16 09:08:44;;;;;;;4.10;1.05;;;;;;;23.13;38.98;101747.06;5056565;28;20135;-74
2022/06/16 09:11:20;;;;;;;1.85;1.10;;;;;;;23.13;37.99;101751.91;5061196;28;20048;-73
2022/06/16 09:13:57;;;;;;;2.83;1.10;;;;;;;22.92;37.68;101753.47;5057805;28;20530;-71
2022/06/16 09:16:50;;;;;;;3.03;1.23;;;;;;;22.91;38.47;101748.28;5056394;28;20131;-73
2022/06/16 09:19:56;;;;;;;2.90;0.80;;;;;;;23.03;38.22;101750.25;5046473;28;20143;-74
2022/06/16 09:22:44;;;;;;;2.95;1.45;;;;;;;22.99;37.50;101760.88;5053395;28;20512;-73
2022/06/16 09:25:32;;;;;;;2.88;1.00;;;;;;;23.06;37.70;101752.16;5056245;28;20127;-73
2022/06/16 09:28:09;;;;;;;3.35;1.10;;;;;;;23.12;38.16;101748.31;5055913;28;20537;-75
2022/06/16 09:30:39;;;;;;;7.32;1.20;;;;;;;23.21;38.53;101745.53;5056131;28;20050;-73
2022/06/16 09:33:11;;;;;;;4.45;1.20;;;;;;;23.38;38.39;101741.28;5061500;28;20078;-73
2022/06/16 09:35:45;;;;;;;2.78;1.23;;;;;;;23.46;38.08;101747.47;5053480;28;20036;-74
2022/06/16 09:38:24;;;;;;;2.50;1.60;;;;;;;23.56;38.41;101758.38;5059397;28;20077;-72
2022/06/16 09:41:00;;;;;;;3.25;0.98;;;;;;;23.66;38.38;101762.03;5057432;28;20048;-74
2022/06/16 09:43:42;;;;;;;2.80;1.23;;;;;;;23.71;37.58;101773.53;5058374;28;20045;-74
2022/06/16 09:46:27;;;;;;;4.95;1.58;;;;;;;23.62;37.63;101776.28;5057896;28;20041;-73
2022/06/16 09:49:22;;;;;;;3.05;1.00;;;;;;;23.72;38.02;101777.91;5063278;28;20114;-72
2022/06/16 09:52:31;;;;;;;3.25;1.10;;;;;;;23.94;37.83;101780.72;5054652;28;20052;-72
2022/06/16 09:55:05;;;;;;;5.10;1.23;;;;;;;24.11;37.59;101797.00;5060638;28;20405;-73
2022/06/16 09:57:40;;;;;;;2.85;1.20;;;;;;;24.13;37.28;101797.31;5055199;28;20048;-73
2022/06/16 10:00:11;;;;;;;4.68;1.30;;;;;;;24.18;37.26;101791.06;5055317;28;20083;-73
2022/06/16 10:02:44;;;;;;;4.88;1.60;;;;;;;24.28;37.45;101789.84;5056595;28;20517;-75
2022/06/16 10:05:37;;;;;;;4.00;1.52;;;;;;;24.29;38.05;101785.75;5051600;28;20597;-74
2022/06/16 10:08:24;;;;;;;3.13;1.40;;;;;;;24.35;37.49;101792.38;5052591;28;20061;-74
2022/06/16 10:11:12;;;;;;;5.97;1.55;;;;;;;24.46;37.81;101784.22;5071370;28;20074;-74
2022/06/16 10:13:53;;;;;;;4.03;1.60;;;;;;;24.66;37.91;101792.31;5050786;28;20048;-73
2022/06/16 10:16:35;;;;;;;6.20;1.60;;;;;;;24.67;36.96;101783.34;5048824;28;20074;-74
2022/06/16 10:19:03;;;;;;;3.28;1.50;;;;;;;24.78;37.69;101792.16;5052744;28;20553;-73
2022/06/16 10:21:34;;;;;;;5.68;1.52;;;;;;;24.90;37.52;101791.25;5047480;28;20090;-73
2022/06/16 10:24:03;;;;;;;2.05;1.40;;;;;;;25.01;37.03;101796.47;5054422;28;20181;-72
2022/06/16 10:26:29;;;;;;;3.28;1.50;;;;;;;25.13;37.01;101791.91;5046582;28;20112;-72
2022/06/16 10:29:06;;;;;;;4.18;1.40;;;;;;;25.26;36.32;101798.97;5048674;28;20086;-73
2022/06/16 10:31:41;;;;;;;6.95;2.00;;;;;;;25.27;35.74;101786.38;5053808;28;20068;-74
2022/06/16 10:34:29;;;;;;;7.30;1.80;;;;;;;25.44;36.06;101801.81;5063368;28;20963;-73
2022/06/16 10:37:05;;;;;;;3.83;2.10;;;;;;;25.41;35.42;101808.41;5052013;28;20051;-73
2022/06/16 10:39:59;;;;;;;3.15;1.50;;;;;;;25.48;35.73;101808.09;5053784;28;20102;-74
2022/06/16 10:42:32;;;;;;;5.65;1.73;;;;;;;25.52;35.87;101810.78;5060556;28;20509;-72
2022/06/16 10:45:02;;;;;;;6.13;1.77;;;;;;;25.69;36.38;101804.31;5056228;28;20324;-75
2022/06/16 10:47:35;;;;;;;4.43;1.63;;;;;;;25.76;35.43;101808.84;5057752;28;20128;-73
2022/06/16 10:50:06;;;;;;;8.35;1.90;;;;;;;25.84;35.33;101818.59;5050850;28;20041;-72
2022/06/16 10:52:40;;;;;;;5.13;2.22;;;;;;;25.87;35.29;101821.25;5056193;28;20103;-71
2022/06/16 10:55:14;;;;;;;9.43;1.98;;;;;;;25.95;35.19;101824.56;5069228;28;20080;-72
2022/06/16 10:57:46;;;;;;;6.47;2.00;;;;;;;25.93;35.13;101816.53;5054493;28;20080;-75
2022/06/16 11:00:18;;;;;;;6.78;1.80;;;;;;;26.00;35.15;101816.22;5064774;28;20061;-71
2022/06/16 11:03:13;;;;;;;2.80;1.75;;;;;;;26.05;34.96;101821.22;5057795;28;20533;-75
2022/06/16 11:05:58;;;;;;;7.75;1.77;;;;;;;25.95;35.17;101828.16;5060679;28;20076;-75
2022/06/16 11:08:35;;;;;;;3.67;1.70;;;;;;;26.16;35.10;101824.38;5055748;28;20048;-74
2022/06/16 11:11:30;;;;;;;6.22;1.60;;;;;;;26.40;35.25;101821.56;5065420;28;20076;-71
2022/06/16 11:13:57;;;;;;;4.18;1.40;;;;;;;26.63;35.16;101815.19;5062724;28;20665;-70
2022/06/16 11:16:31;;;;;;;3.60;1.85;;;;;;;26.74;34.84;101812.56;5056417;28;20052;-71
2022/06/16 11:19:00;;;;;;;5.13;2.00;;;;;;;26.93;34.68;101822.56;5056579;28;20118;-74
2022/06/16 11:21:30;;;;;;;5.70;2.03;;;;;;;27.09;34.22;101808.69;5044525;28;20080;-74
2022/06/16 11:24:01;;;;;;;4.10;1.60;;;;;;;27.22;34.26;101814.09;5033097;28;20524;-76
2022/06/16 11:26:42;;;;;;;4.00;1.90;;;;;;;27.23;33.39;101807.16;5032420;28;20222;-73
2022/06/16 11:29:10;;;;;;;5.68;1.90;;;;;;;27.29;33.91;101811.72;5034117;28;20314;-75
2022/06/16 11:31:45;;;;;;;2.70;1.70;;;;;;;27.08;33.00;101798.59;5031185;28;20087;-77
2022/06/16 11:34:18;;;;;;;6.03;2.20;;;;;;;27.48;34.09;101800.97;5032856;28;20048;-77
2022/06/16 11:37:07;;;;;;;3.40;1.77;;;;;;;28.05;33.04;101793.72;5043069;28;20801;-76
2022/06/16 11:39:46;;;;;;;7.43;2.55;;;;;;;28.38;32.44;101797.06;5047930;28;20052;-79
2022/06/16 11:42:51;;;;;;;3.10;1.73;;;;;;;28.94;31.57;101790.09;5041565;28;20062;-80
2022/06/16 11:45:41;;;;;;;1.83;1.55;;;;;;;29.45;31.74;101773.88;5041419;28;20052;-78
2022/06/16 11:48:20;;;;;;;4.88;1.98;;;;;;;30.05;30.38;101783.50;5032610;28;20156;-78
2022/06/16 11:51:04;;;;;;;3.78;1.60;;;;;;;30.33;29.19;101785.31;5040485;28;20921;-77
2022/06/16 11:53:36;;;;;;;4.53;2.05;;;;;;;30.60;28.90;101790.41;5036589;28;20049;-77
2022/06/16 11:56:32;;;;;;;3.92;1.90;;;;;;;30.73;27.90;101798.53;5066490;28;20049;-77
2022/06/16 11:59:10;;;;;;;5.47;1.92;;;;;;;31.17;28.84;101793.00;5048829;28;20057;-78
2022/06/16 12:02:09;;;;;;;5.05;1.50;;;;;;;31.43;27.60;101799.34;5047051;28;20163;-76
2022/06/16 12:04:58;;;;;;;6.68;2.30;;;;;;;31.66;27.37;101806.69;5034034;28;20055;-77
2022/06/16 12:07:35;;;;;;;4.13;1.63;;;;;;;32.10;28.29;101806.72;5049670;28;21870;-79
2022/06/16 12:10:20;;;;;;;5.38;2.00;;;;;;;32.30;25.83;101802.81;5056756;28;20489;-78
2022/06/16 12:13:13;;;;;;;;;;;;;;;32.43;25.76;101812.47;5054003;28;20179;-75
2022/06/16 12:16:01;;;;;;;3.13;1.75;;;;;;;32.58;25.58;101817.88;5039985;28;20416;-77
2022/06/16 12:18:51;;;;;;;5.68;2.03;;;;;;;32.81;25.50;101822.25;5034467;28;20675;-77